map of KLUD home
KLUD - Airport
Location
City:  Decatur, Texas, United States
Name:Decatur Municipal Airport
ICAO:KLUD
FAA LID:LUD

Details
Type:Airport (Airfield)
Use:Public/Civil
Latitude:3315'15"N (33.254250)
Longitude:9734'50"W (-97.580499)
Datum:WGS 1984
Elevation:1046 ft (319 m)
Variation:3.65E (WMM2015v2 magnetic declination)
-0.10 annual change
Runways:1
Longest:4200 × 60 ft (1280 × 18.5 m), paved

Time
Time Zone:UTC-6 (DST-5)
Local Time:

Weather
METAR:KLUD 041415Z AUTO 21005KT 7SM CLR 15/13 A2983 RMK AO2 T01540130

Related Locations
Nearby:
Farthest:RRG: 10942 mi / 17610 km
Plaine Corail [Sir Gatan Duval Airport (Plaine Corail Airport)], Rodrigues Island, MU

Find:

   beyond  
but within

Other Information
Maps:
NOTAMs:
Links:
Sources:

  
  • flag of United States
  • flag of Texas
  

Sectional Chart

Flight Planning
at skyvector.com

Satellite Image

Google Maps Satellite view

 

Copyright © 2004-2019 Karl L. Swartz. All rights reserved.
The Great Circle Mapper name and logo are trademarks of the Great Circle Mapper.
All other trademarks mentioned herein belong to their respective owners.
Please see credits for attibutions and further copyright information.

  Follow gcmap on Facebook Follow gcmap on Twitter GCmap on LinkedIn

hCard Microformat

Geo Microformat